createdAt,value
2023-02-22T00:02:32.619Z,99585.75
2023-02-22T00:05:00.731Z,99582.25
2023-02-22T00:07:30.212Z,99584.81
2023-02-22T00:10:01.032Z,99585.38
2023-02-22T00:12:44.184Z,99584.84
2023-02-22T00:15:15.445Z,99588.06
2023-02-22T00:17:44.789Z,99591.72
2023-02-22T00:20:18.761Z,99594.47
2023-02-22T00:22:49.267Z,99590.00
2023-02-22T00:25:20.728Z,99593.38
2023-02-22T00:28:05.057Z,99598.75
2023-02-22T00:30:36.447Z,99598.59
2023-02-22T00:33:10.007Z,99595.09
2023-02-22T00:35:47.910Z,99599.97
2023-02-22T00:38:20.076Z,99597.06
2023-02-22T00:40:50.934Z,99591.97
2023-02-22T00:43:25.155Z,99594.22
2023-02-22T00:45:54.227Z,99592.53
2023-02-22T00:48:26.774Z,99598.34
2023-02-22T00:50:58.556Z,99592.56
2023-02-22T00:53:31.982Z,99601.34
2023-02-22T00:56:02.145Z,99592.44
2023-02-22T00:58:35.022Z,99590.00
2023-02-22T01:01:04.316Z,99590.28
2023-02-22T01:03:35.309Z,99598.13
2023-02-22T01:06:09.683Z,99600.13
2023-02-22T01:08:41.266Z,99586.50
2023-02-22T01:11:10.499Z,99586.59
2023-02-22T01:13:47.954Z,99581.72
2023-02-22T01:16:22.476Z,99586.63
2023-02-22T01:18:54.196Z,99584.38
2023-02-22T01:21:26.524Z,99577.13
2023-02-22T01:23:56.670Z,99570.56
2023-02-22T01:26:38.236Z,99573.56
2023-02-22T01:29:15.272Z,99577.72
2023-02-22T01:31:52.224Z,99573.56
2023-02-22T01:34:26.461Z,99568.38
2023-02-22T01:37:03.264Z,99570.75
2023-02-22T01:39:33.994Z,99569.69
2023-02-22T01:42:03.644Z,99569.41
2023-02-22T01:44:37.984Z,99555.31
2023-02-22T01:47:11.995Z,99566.22
2023-02-22T01:49:43.637Z,99558.84
2023-02-22T01:52:19.860Z,99566.28
2023-02-22T01:54:56.424Z,99567.06
2023-02-22T01:57:31.681Z,99557.50
2023-02-22T02:00:13.755Z,99557.63
2023-02-22T02:02:45.903Z,99562.38
2023-02-22T02:05:15.613Z,99556.31
2023-02-22T02:07:46.673Z,99553.72
2023-02-22T02:10:26.784Z,99558.94
2023-02-22T02:13:06.358Z,99554.19
2023-02-22T02:15:36.493Z,99551.22
2023-02-22T02:18:09.005Z,99546.09
2023-02-22T02:20:47.941Z,99543.88
2023-02-22T02:23:43.553Z,99552.19
2023-02-22T02:26:32.774Z,99548.00
2023-02-22T02:29:32.669Z,99551.44
2023-02-22T02:32:44.271Z,99548.72
2023-02-22T02:35:22.883Z,99548.06
2023-02-22T02:37:58.023Z,99546.94
2023-02-22T02:40:33.500Z,99554.41
2023-02-22T02:43:06.519Z,99550.13
2023-02-22T02:45:46.565Z,99552.03
2023-02-22T02:48:20.909Z,99545.41
2023-02-22T02:50:59.578Z,99543.25
2023-02-22T02:53:35.864Z,99537.38
2023-02-22T02:56:10.238Z,99545.63
2023-02-22T02:58:55.725Z,99541.63
2023-02-22T03:01:51.556Z,99534.31
2023-02-22T03:04:25.572Z,99549.53
2023-02-22T03:07:23.688Z,99540.38
2023-02-22T03:10:11.605Z,99546.34
2023-02-22T03:12:48.033Z,99540.13
2023-02-22T03:15:27.646Z,99544.09
2023-02-22T03:18:10.450Z,99548.50
2023-02-22T03:20:49.848Z,99551.22
2023-02-22T03:23:38.791Z,99555.88
2023-02-22T03:26:14.391Z,99555.72
2023-02-22T03:28:46.821Z,99555.59
2023-02-22T03:31:23.567Z,99568.41
2023-02-22T03:33:56.064Z,99559.72
2023-02-22T03:36:30.765Z,99560.53
2023-02-22T03:39:04.347Z,99555.34
2023-02-22T03:41:38.923Z,99554.88
2023-02-22T03:44:10.809Z,99565.28
2023-02-22T03:46:42.117Z,99556.13
2023-02-22T03:49:21.312Z,99561.28
2023-02-22T03:51:50.301Z,99560.09
2023-02-22T03:54:37.130Z,99560.84
2023-02-22T03:57:14.389Z,99554.88
2023-02-22T03:59:49.293Z,99548.94
2023-02-22T04:02:22.046Z,99546.56
2023-02-22T04:05:00.623Z,99548.25
2023-02-22T04:07:31.100Z,99549.84
2023-02-22T04:10:05.357Z,99538.16
2023-02-22T04:12:36.559Z,99547.41
2023-02-22T04:15:08.817Z,99552.22
2023-02-22T04:17:42.398Z,99546.03
2023-02-22T04:20:19.887Z,99551.84
2023-02-22T04:22:56.262Z,99557.19
2023-02-22T04:25:37.453Z,99553.81
2023-02-22T04:28:23.887Z,99559.94
2023-02-22T04:30:59.848Z,99556.63
2023-02-22T04:33:38.501Z,99548.88
2023-02-22T04:36:19.881Z,99545.19
2023-02-22T04:38:52.257Z,99549.16
2023-02-22T04:41:36.073Z,99546.25
2023-02-22T04:44:05.432Z,99545.94
2023-02-22T04:46:35.429Z,99548.78
2023-02-22T04:49:05.102Z,99542.41
2023-02-22T04:51:41.356Z,99536.09
2023-02-22T04:54:14.210Z,99534.56
2023-02-22T04:56:59.507Z,99544.44
2023-02-22T04:59:36.733Z,99545.88
2023-02-22T05:02:06.500Z,99545.03
2023-02-22T05:04:39.975Z,99546.66
2023-02-22T05:07:10.760Z,99546.19
2023-02-22T05:09:44.080Z,99547.84
2023-02-22T05:12:17.819Z,99549.47
2023-02-22T05:14:46.164Z,99539.59
2023-02-22T05:17:15.155Z,99544.13
2023-02-22T05:19:45.089Z,99549.78
2023-02-22T05:22:13.223Z,99538.31
2023-02-22T05:24:45.014Z,99549.22
2023-02-22T05:27:23.088Z,99544.59
2023-02-22T05:30:03.350Z,99543.97
2023-02-22T05:35:25.851Z,99538.00
2023-02-22T05:37:56.898Z,99541.50
2023-02-22T05:40:30.952Z,99550.28
2023-02-22T05:43:12.092Z,99550.84
2023-02-22T05:45:51.144Z,99554.06
2023-02-22T05:48:31.827Z,99549.06
2023-02-22T05:51:02.741Z,99544.72
2023-02-22T05:53:33.820Z,99548.78
2023-02-22T05:56:03.854Z,99548.69
2023-02-22T05:58:33.556Z,99550.66
2023-02-22T06:01:11.291Z,99551.69
2023-02-22T06:03:40.206Z,99550.94
2023-02-22T06:06:19.654Z,99557.09
2023-02-22T06:08:58.860Z,99558.81
2023-02-22T06:11:30.521Z,99565.44
2023-02-22T06:13:59.769Z,99567.66
2023-02-22T06:16:36.440Z,99562.00
2023-02-22T06:19:19.108Z,99576.03
2023-02-22T06:21:52.778Z,99565.66
2023-02-22T06:24:30.606Z,99574.19
2023-02-22T06:27:02.957Z,99570.75
2023-02-22T06:29:34.601Z,99570.00
2023-02-22T06:32:11.615Z,99575.44
2023-02-22T06:34:41.159Z,99567.94
2023-02-22T06:37:13.305Z,99569.31
2023-02-22T06:39:50.021Z,99559.56
2023-02-22T06:42:22.242Z,99581.13
2023-02-22T06:44:51.920Z,99565.97
2023-02-22T06:47:38.574Z,99577.88
2023-02-22T06:50:09.322Z,99572.34
2023-02-22T06:52:48.027Z,99572.78
2023-02-22T06:55:20.045Z,99580.34
2023-02-22T06:57:55.795Z,99582.09
2023-02-22T07:00:28.540Z,99575.81
2023-02-22T07:03:13.284Z,99580.97
2023-02-22T07:05:55.526Z,99576.44
2023-02-22T07:08:29.299Z,99583.63
2023-02-22T07:11:00.965Z,99579.56
2023-02-22T07:13:29.743Z,99577.69
2023-02-22T07:15:57.874Z,99580.41
2023-02-22T07:18:30.947Z,99588.69
2023-02-22T07:21:05.260Z,99576.06
2023-02-22T07:23:39.683Z,99580.22
2023-02-22T07:26:08.591Z,99579.56
2023-02-22T07:28:37.293Z,99578.75
2023-02-22T07:31:11.529Z,99589.59
2023-02-22T07:33:51.371Z,99576.75
2023-02-22T07:36:26.951Z,99574.31
2023-02-22T07:38:55.318Z,99568.69
2023-02-22T07:41:29.266Z,99572.38
2023-02-22T07:44:00.786Z,99577.69
2023-02-22T07:46:29.880Z,99578.50
2023-02-22T07:49:07.299Z,99557.78
2023-02-22T07:51:36.486Z,99575.44
2023-02-22T07:54:10.457Z,99568.78
2023-02-22T07:56:46.255Z,99570.22
2023-02-22T07:59:15.467Z,99568.31
2023-02-22T08:01:47.204Z,99572.50
2023-02-22T08:04:17.770Z,99559.69
2023-02-22T08:06:50.255Z,99565.22
2023-02-22T08:09:18.407Z,99565.84
2023-02-22T08:11:57.602Z,99564.56
2023-02-22T08:14:32.855Z,99562.78
2023-02-22T08:17:04.440Z,99561.34
2023-02-22T08:19:39.822Z,99558.88
2023-02-22T08:22:16.601Z,99557.50
2023-02-22T08:24:45.356Z,99560.69
2023-02-22T08:27:17.623Z,99559.69
2023-02-22T08:29:49.012Z,99557.78
2023-02-22T08:32:25.708Z,99553.22
2023-02-22T08:34:57.687Z,99553.53
2023-02-22T08:37:26.374Z,99554.09
2023-02-22T08:39:57.282Z,99551.91
2023-02-22T08:42:39.713Z,99546.78
2023-02-22T08:45:11.312Z,99553.31
2023-02-22T08:47:45.913Z,99548.13
2023-02-22T08:50:33.430Z,99549.84
2023-02-22T08:53:05.439Z,99559.22
2023-02-22T08:55:43.435Z,99568.53
2023-02-22T08:58:19.975Z,99562.91
2023-02-22T09:00:51.159Z,99558.91
2023-02-22T09:03:20.796Z,99553.63
2023-02-22T09:05:53.402Z,99562.47
2023-02-22T09:08:28.897Z,99556.09
2023-02-22T09:10:57.409Z,99557.38
2023-02-22T09:13:34.423Z,99552.97
2023-02-22T09:16:06.120Z,99551.31
2023-02-22T09:18:44.542Z,99556.84
2023-02-22T09:21:20.445Z,99556.38
2023-02-22T09:23:56.869Z,99556.38
2023-02-22T09:26:27.707Z,99554.75
2023-02-22T09:29:00.544Z,99550.09
2023-02-22T09:31:32.293Z,99548.72
2023-02-22T09:34:04.358Z,99549.06
2023-02-22T09:36:36.403Z,99545.06
2023-02-22T09:39:07.654Z,99548.91
2023-02-22T09:41:43.489Z,99541.50
2023-02-22T09:44:26.784Z,99553.44
2023-02-22T09:46:59.127Z,99546.09
2023-02-22T09:49:34.159Z,99544.91
2023-02-22T09:52:10.011Z,99545.31
2023-02-22T09:54:43.487Z,99540.47
2023-02-22T09:57:20.717Z,99532.25
2023-02-22T10:00:12.983Z,99534.94
2023-02-22T10:02:48.054Z,99536.78
2023-02-22T10:05:28.541Z,99539.81
2023-02-22T10:08:06.189Z,99536.44
2023-02-22T10:10:39.402Z,99529.56
2023-02-22T10:13:21.743Z,99530.41
2023-02-22T10:15:58.298Z,99520.00
2023-02-22T10:19:12.184Z,99529.72
2023-02-22T10:21:51.215Z,99515.63
2023-02-22T10:24:38.577Z,99527.22
2023-02-22T10:27:13.281Z,99514.94
2023-02-22T10:29:50.360Z,99507.28
2023-02-22T10:32:23.230Z,99516.47
2023-02-22T10:34:54.358Z,99502.69
2023-02-22T10:37:29.896Z,99510.94
2023-02-22T10:40:23.087Z,99503.91
2023-02-22T10:42:57.806Z,99512.06
2023-02-22T10:45:38.092Z,99501.16
2023-02-22T10:48:24.022Z,99506.66
2023-02-22T10:51:09.039Z,99498.47
2023-02-22T10:53:48.542Z,99497.09
2023-02-22T10:56:30.854Z,99494.41
2023-02-22T10:59:02.492Z,99500.50
2023-02-22T11:01:40.852Z,99493.94
2023-02-22T11:04:16.217Z,99491.91
2023-02-22T11:06:51.388Z,99488.53
2023-02-22T11:09:23.082Z,99486.06
2023-02-22T11:12:22.025Z,99485.22
2023-02-22T11:14:52.758Z,99471.91
2023-02-22T11:17:34.231Z,99482.50
2023-02-22T11:20:03.768Z,99474.63
2023-02-22T11:22:41.174Z,99472.81
2023-02-22T11:25:09.985Z,99476.84
2023-02-22T11:27:43.793Z,99474.81
2023-02-22T11:30:29.320Z,99462.22
2023-02-22T11:33:01.660Z,99467.59
2023-02-22T11:35:47.053Z,99469.34
2023-02-22T11:38:30.256Z,99456.41
2023-02-22T11:41:40.495Z,99465.28
2023-02-22T11:44:30.884Z,99454.44
2023-02-22T11:47:07.105Z,99448.06
2023-02-22T11:49:48.160Z,99449.72
2023-02-22T11:52:31.022Z,99449.72
2023-02-22T11:55:40.097Z,99446.72
2023-02-22T11:58:50.749Z,99441.03
2023-02-22T12:01:33.430Z,99444.41
2023-02-22T12:04:39.657Z,99440.44
2023-02-22T12:07:48.670Z,99437.53
2023-02-22T12:10:47.302Z,99428.59
2023-02-22T12:13:33.344Z,99433.38
2023-02-22T12:16:08.157Z,99425.94
2023-02-22T12:18:45.613Z,99423.78
2023-02-22T12:21:17.905Z,99429.31
2023-02-22T12:23:52.251Z,99420.66
2023-02-22T12:26:29.105Z,99425.25
2023-02-22T12:29:00.342Z,99417.53
2023-02-22T12:31:42.510Z,99416.22
2023-02-22T12:34:29.774Z,99410.34
2023-02-22T12:37:11.886Z,99402.59
2023-02-22T12:39:54.147Z,99398.28
2023-02-22T12:42:31.287Z,99404.94
2023-02-22T12:45:17.061Z,99404.41
2023-02-22T12:47:56.085Z,99390.72
2023-02-22T12:50:34.810Z,99393.13
2023-02-22T12:53:15.793Z,99391.53
2023-02-22T12:56:00.602Z,99386.19
2023-02-22T12:58:35.178Z,99396.88
2023-02-22T13:01:07.335Z,99387.66
2023-02-22T13:03:39.394Z,99382.19
2023-02-22T13:06:34.725Z,99384.44
2023-02-22T13:09:13.018Z,99380.56
2023-02-22T13:11:47.547Z,99368.97
2023-02-22T13:14:35.908Z,99373.16
2023-02-22T13:17:14.206Z,99372.66
2023-02-22T13:19:48.796Z,99369.50
2023-02-22T13:22:35.641Z,99365.28
2023-02-22T13:25:16.680Z,99366.59
2023-02-22T13:27:55.397Z,99364.34
2023-02-22T13:30:29.079Z,99364.75
2023-02-22T13:33:18.310Z,99362.09
2023-02-22T13:36:08.901Z,99361.59
2023-02-22T13:39:29.837Z,99362.69
2023-02-22T13:42:44.382Z,99361.13
2023-02-22T13:45:54.977Z,99353.09
2023-02-22T13:49:00.473Z,99359.81
2023-02-22T13:51:47.528Z,99365.66
2023-02-22T13:54:31.312Z,99344.34
2023-02-22T13:57:05.227Z,99355.66
2023-02-22T13:59:47.280Z,99354.66
2023-02-22T14:02:36.725Z,99343.91
2023-02-22T14:05:37.230Z,99334.38
2023-02-22T14:08:07.203Z,99338.94
2023-02-22T14:10:52.102Z,99336.78
2023-02-22T14:13:33.425Z,99342.66
2023-02-22T14:16:37.775Z,99342.59
2023-02-22T14:19:17.017Z,99334.69
2023-02-22T14:22:06.872Z,99327.59
2023-02-22T14:24:44.087Z,99336.47
2023-02-22T14:27:20.642Z,99325.25
2023-02-22T14:29:55.084Z,99324.22
2023-02-22T14:32:44.725Z,99327.31
2023-02-22T14:35:44.606Z,99328.28
2023-02-22T14:38:17.865Z,99327.09
2023-02-22T14:40:49.601Z,99334.38
2023-02-22T14:43:33.380Z,99316.44
2023-02-22T14:46:05.478Z,99325.63
2023-02-22T14:48:42.940Z,99326.81
2023-02-22T14:51:25.203Z,99328.78
2023-02-22T14:54:01.409Z,99330.81
2023-02-22T14:56:37.215Z,99327.25
2023-02-22T14:59:28.231Z,99322.31
2023-02-22T15:02:11.733Z,99325.78
2023-02-22T15:04:44.117Z,99327.16
2023-02-22T15:07:28.342Z,99325.34
2023-02-22T15:10:26.499Z,99320.50
2023-02-22T15:13:09.208Z,99321.50
2023-02-22T15:15:44.126Z,99317.34
2023-02-22T15:18:23.290Z,99315.97
2023-02-22T15:20:58.473Z,99326.94
2023-02-22T15:23:33.371Z,99314.19
2023-02-22T15:26:05.857Z,99325.56
2023-02-22T15:28:36.733Z,99316.88
2023-02-22T15:31:33.429Z,99321.06
2023-02-22T15:34:22.805Z,99319.56
2023-02-22T15:36:55.159Z,99322.44
2023-02-22T15:39:29.729Z,99326.13
2023-02-22T15:42:09.582Z,99317.41
2023-02-22T15:44:48.495Z,99317.09
2023-02-22T15:47:25.994Z,99321.09
2023-02-22T15:50:18.862Z,99319.78
2023-02-22T15:53:01.596Z,99321.78
2023-02-22T15:55:43.264Z,99321.31
2023-02-22T15:58:25.447Z,99321.63
2023-02-22T16:01:01.721Z,99331.22
2023-02-22T16:03:58.592Z,99322.00
2023-02-22T16:06:45.089Z,99315.78
2023-02-22T16:09:26.018Z,99321.97
2023-02-22T16:12:10.762Z,99310.59
2023-02-22T16:14:50.432Z,99314.59
2023-02-22T16:17:49.502Z,99324.69
2023-02-22T16:20:41.986Z,99329.53
2023-02-22T16:23:30.008Z,99324.16
2023-02-22T16:26:29.950Z,99326.66
2023-02-22T16:29:14.792Z,99326.31
2023-02-22T16:31:45.918Z,99327.50
2023-02-22T16:34:18.316Z,99339.88
2023-02-22T16:36:58.374Z,99333.34
2023-02-22T16:39:41.826Z,99337.84
2023-02-22T16:42:12.919Z,99344.34
2023-02-22T16:44:49.460Z,99346.38
2023-02-22T16:47:31.322Z,99344.53
2023-02-22T16:50:00.084Z,99342.00
2023-02-22T16:52:43.430Z,99350.34
2023-02-22T16:55:15.698Z,99352.84
2023-02-22T16:57:56.247Z,99351.00
2023-02-22T17:00:38.018Z,99351.44
2023-02-22T17:03:09.390Z,99358.47
2023-02-22T17:05:53.630Z,99353.09
2023-02-22T17:08:35.241Z,99359.25
2023-02-22T17:11:15.122Z,99354.22
2023-02-22T17:13:55.391Z,99353.72
2023-02-22T17:16:30.369Z,99363.03
2023-02-22T17:19:07.499Z,99362.72
2023-02-22T17:21:46.439Z,99363.19
2023-02-22T17:24:35.102Z,99366.72
2023-02-22T17:27:16.010Z,99358.63
2023-02-22T17:29:49.597Z,99364.63
2023-02-22T17:32:23.957Z,99370.84
2023-02-22T17:35:05.561Z,99369.88
2023-02-22T17:37:39.806Z,99364.75
2023-02-22T17:40:20.784Z,99363.13
2023-02-22T17:42:58.890Z,99363.25
2023-02-22T17:45:46.398Z,99368.53
2023-02-22T17:48:53.656Z,99361.97
2023-02-22T17:51:28.850Z,99361.28
2023-02-22T17:53:57.961Z,99364.69
2023-02-22T17:56:53.262Z,99355.22
2023-02-22T17:59:46.554Z,99359.50
2023-02-22T18:02:30.262Z,99358.25
2023-02-22T18:05:09.576Z,99360.31
2023-02-22T18:07:41.508Z,99356.53
2023-02-22T18:10:15.494Z,99360.25
2023-02-22T18:13:04.445Z,99355.59
2023-02-22T18:15:51.712Z,99355.44
2023-02-22T18:18:30.738Z,99367.72
2023-02-22T18:21:04.339Z,99353.72
2023-02-22T18:23:42.882Z,99357.09
2023-02-22T18:26:26.766Z,99359.50
2023-02-22T18:29:10.726Z,99359.34
2023-02-22T18:31:58.607Z,99353.78
2023-02-22T18:34:34.572Z,99362.69
2023-02-22T18:40:12.884Z,99359.28
2023-02-22T18:42:50.244Z,99345.28
2023-02-22T18:46:01.650Z,99346.50
2023-02-22T18:49:07.503Z,99349.50
2023-02-22T18:51:47.997Z,99351.00
2023-02-22T18:54:38.138Z,99361.06
2023-02-22T18:57:13.989Z,99356.13
2023-02-22T18:59:51.422Z,99356.28
2023-02-22T19:02:23.882Z,99361.22
2023-02-22T19:05:15.392Z,99363.81
2023-02-22T19:07:52.517Z,99360.47
2023-02-22T19:10:28.392Z,99361.38
2023-02-22T19:13:14.248Z,99355.97
2023-02-22T19:15:54.897Z,99354.81
2023-02-22T19:18:34.739Z,99355.16
2023-02-22T19:21:14.516Z,99348.91
2023-02-22T19:24:04.560Z,99354.56
2023-02-22T19:26:36.159Z,99359.38
2023-02-22T19:29:22.305Z,99351.97
2023-02-22T19:31:59.822Z,99349.16
2023-02-22T19:34:38.144Z,99351.59
2023-02-22T19:37:28.898Z,99353.09
2023-02-22T19:40:02.411Z,99353.97
2023-02-22T19:42:32.689Z,99353.75
2023-02-22T19:45:05.670Z,99356.13
2023-02-22T19:47:43.929Z,99358.66
2023-02-22T19:50:25.774Z,99365.06
2023-02-22T19:53:01.460Z,99363.44
2023-02-22T19:55:36.373Z,99357.38
2023-02-22T19:58:21.591Z,99353.34
2023-02-22T20:00:56.302Z,99365.47
2023-02-22T20:03:55.134Z,99370.44
2023-02-22T20:06:29.186Z,99365.91
2023-02-22T20:09:09.470Z,99369.69
2023-02-22T20:11:49.993Z,99368.72
2023-02-22T20:14:32.951Z,99379.59
2023-02-22T20:17:08.393Z,99382.03
2023-02-22T20:19:42.973Z,99379.59
2023-02-22T20:22:19.224Z,99382.00
2023-02-22T20:28:07.876Z,99381.16
2023-02-22T20:30:48.849Z,99387.19
2023-02-22T20:36:39.471Z,99389.72
2023-02-22T20:39:24.720Z,99390.72
2023-02-22T20:42:21.637Z,99391.38
2023-02-22T20:45:08.642Z,99383.78
2023-02-22T20:47:49.203Z,99392.22
2023-02-22T20:50:27.639Z,99385.31
2023-02-22T20:53:02.199Z,99384.88
2023-02-22T20:55:45.111Z,99386.94
2023-02-22T20:58:28.608Z,99392.53
2023-02-22T21:01:18.987Z,99380.53
2023-02-22T21:03:57.338Z,99380.69
2023-02-22T21:06:34.328Z,99382.25
2023-02-22T21:09:18.232Z,99378.81
2023-02-22T21:11:54.196Z,99387.53
2023-02-22T21:14:41.338Z,99382.50
2023-02-22T21:17:13.275Z,99380.94
2023-02-22T21:19:54.093Z,99382.50
2023-02-22T21:22:27.064Z,99378.31
2023-02-22T21:25:09.946Z,99378.88
2023-02-22T21:27:51.591Z,99371.09
2023-02-22T21:30:31.946Z,99371.75
2023-02-22T21:33:33.104Z,99370.50
2023-02-22T21:36:28.479Z,99370.66
2023-02-22T21:39:13.724Z,99370.81
2023-02-22T21:41:49.688Z,99368.94
2023-02-22T21:44:21.663Z,99366.03
2023-02-22T21:47:12.269Z,99364.63
2023-02-22T21:49:49.292Z,99366.47
2023-02-22T21:52:33.987Z,99359.72
2023-02-22T21:55:09.471Z,99364.91
2023-02-22T21:57:44.150Z,99361.69
2023-02-22T22:00:17.979Z,99358.31
2023-02-22T22:02:55.285Z,99367.28
2023-02-22T22:05:34.077Z,99356.91
2023-02-22T22:08:09.919Z,99357.91
2023-02-22T22:10:49.079Z,99354.81
2023-02-22T22:13:21.455Z,99357.94
2023-02-22T22:15:51.488Z,99354.97
2023-02-22T22:18:36.890Z,99348.13
2023-02-22T22:21:18.971Z,99354.00
2023-02-22T22:23:50.995Z,99353.72
2023-02-22T22:26:21.878Z,99347.81
2023-02-22T22:28:58.297Z,99352.03
2023-02-22T22:31:36.182Z,99347.97
2023-02-22T22:34:15.633Z,99340.53
2023-02-22T22:36:47.646Z,99338.44
2023-02-22T22:39:25.311Z,99339.72
2023-02-22T22:41:57.849Z,99338.72
2023-02-22T22:44:32.972Z,99344.75
2023-02-22T22:47:02.841Z,99335.78
2023-02-22T22:49:43.510Z,99351.06
2023-02-22T22:52:15.474Z,99338.31
2023-02-22T22:54:50.710Z,99348.97
2023-02-22T22:57:23.760Z,99351.63
2023-02-22T22:59:55.106Z,99343.78
2023-02-22T23:02:32.845Z,99343.06
2023-02-22T23:05:02.916Z,99343.91
2023-02-22T23:07:32.005Z,99344.91
2023-02-22T23:10:00.450Z,99343.06
2023-02-22T23:12:32.797Z,99338.59
2023-02-22T23:15:02.876Z,99342.94
2023-02-22T23:17:43.709Z,99343.91
2023-02-22T23:20:25.339Z,99343.22
2023-02-22T23:22:59.174Z,99343.38
2023-02-22T23:25:29.935Z,99339.44
2023-02-22T23:27:59.287Z,99345.88
2023-02-22T23:30:28.262Z,99342.09
2023-02-22T23:33:01.244Z,99336.91
2023-02-22T23:35:39.092Z,99342.38
2023-02-22T23:38:11.001Z,99336.91
2023-02-22T23:40:40.666Z,99338.59
2023-02-22T23:43:12.558Z,99338.47
2023-02-22T23:45:48.750Z,99338.56
2023-02-22T23:48:20.825Z,99336.47
2023-02-22T23:51:00.595Z,99339.41
2023-02-22T23:53:32.667Z,99333.69
2023-02-22T23:56:06.612Z,99332.00
2023-02-22T23:58:40.875Z,99332.84
